Time;durP1;ratioP1;P1;durP2;ratioP2;P2;SDS_P1;SDS_P2;PMS_P1;PMS_P2;Temp;Humidity;BMP_temperature;BMP_pressure;BME280_temperature;BME280_humidity;BME280_pressure;Samples;Min_cycle;Max_cycle;Signal;HPM_P1;HPM_P2
2023/08/29 00:00:11;;;;;;;1.83;1.73;;;;;;;14.25;100.00;100727.09;5031871;28;20033;-64
2023/08/29 00:02:40;;;;;;;3.13;1.77;;;;;;;14.20;100.00;100709.94;5032223;28;20033;-64
2023/08/29 00:05:07;;;;;;;2.50;1.83;;;;;;;14.20;100.00;100724.16;5031778;28;20088;-64
2023/08/29 00:07:32;;;;;;;2.87;1.70;;;;;;;14.21;100.00;100724.97;5031745;28;20080;-65
2023/08/29 00:09:57;;;;;;;4.77;2.00;;;;;;;14.08;100.00;100716.75;5031581;28;20042;-64
2023/08/29 00:12:23;;;;;;;3.53;2.00;;;;;;;14.14;100.00;100729.41;5031800;28;20489;-65
2023/08/29 00:14:49;;;;;;;1.90;1.80;;;;;;;14.11;100.00;100729.78;5031831;28;20087;-63
2023/08/29 00:17:16;;;;;;;3.07;1.80;;;;;;;14.02;100.00;100730.91;5031886;28;20034;-63
2023/08/29 00:19:42;;;;;;;1.63;1.47;;;;;;;14.08;100.00;100736.34;5031729;28;20037;-62
2023/08/29 00:22:07;;;;;;;3.20;1.80;;;;;;;14.07;100.00;100741.88;5031590;28;20362;-63
2023/08/29 00:24:33;;;;;;;2.10;1.70;;;;;;;13.97;100.00;100727.97;5030264;28;20033;-64
2023/08/29 00:26:58;;;;;;;2.07;1.80;;;;;;;14.04;100.00;100739.59;5031994;28;20350;-63
2023/08/29 00:29:26;;;;;;;3.63;2.30;;;;;;;13.96;100.00;100732.47;5031218;28;20099;-62
2023/08/29 00:31:51;;;;;;;3.47;1.37;;;;;;;14.01;100.00;100750.66;5031638;28;20060;-64
2023/08/29 00:34:17;;;;;;;2.97;2.47;;;;;;;13.99;100.00;100742.81;5031886;28;20030;-63
2023/08/29 00:36:42;;;;;;;2.03;1.80;;;;;;;13.92;100.00;100733.88;5032620;28;20075;-64
2023/08/29 00:39:08;;;;;;;2.80;2.07;;;;;;;13.93;100.00;100731.00;5035050;28;20377;-64
2023/08/29 00:41:33;;;;;;;3.93;2.30;;;;;;;13.99;100.00;100740.13;5035091;28;20033;-64
2023/08/29 00:43:59;;;;;;;2.23;2.00;;;;;;;13.99;100.00;100758.06;5035191;28;20350;-64
2023/08/29 00:46:25;;;;;;;4.33;2.20;;;;;;;13.95;100.00;100747.72;5033901;28;20063;-65
2023/08/29 00:48:51;;;;;;;4.73;2.20;;;;;;;13.82;100.00;100730.63;5036399;28;20037;-66
2023/08/29 00:51:20;;;;;;;5.47;2.33;;;;;;;13.85;100.00;100738.28;5034801;28;20091;-67
2023/08/29 00:53:45;;;;;;;;;;;;;;;13.91;100.00;100745.59;5035187;28;20033;-64
2023/08/29 00:56:12;;;;;;;2.67;2.03;;;;;;;13.86;100.00;100748.81;5034956;28;19909;-63
2023/08/29 00:58:39;;;;;;;3.77;1.83;;;;;;;13.76;100.00;100742.06;5034678;28;20033;-64
2023/08/29 01:01:04;;;;;;;2.70;1.70;;;;;;;13.78;100.00;100750.75;5034957;28;20038;-64
2023/08/29 01:03:30;;;;;;;4.03;1.67;;;;;;;13.73;100.00;100742.44;5036500;28;20029;-63
2023/08/29 01:05:56;;;;;;;3.13;1.63;;;;;;;13.74;100.00;100752.97;5016992;28;20053;-62
2023/08/29 01:08:22;;;;;;;1.77;1.60;;;;;;;13.64;100.00;100744.38;5034373;28;20075;-64
2023/08/29 01:10:56;;;;;;;3.83;3.00;;;;;;;13.76;100.00;100775.03;5034421;28;20488;-63
2023/08/29 01:13:29;;;;;;;3.63;1.50;;;;;;;13.77;100.00;100771.31;5034653;28;20041;-64
2023/08/29 01:15:58;;;;;;;2.47;1.90;;;;;;;13.71;100.00;100764.03;5034474;28;20025;-64
2023/08/29 01:18:26;;;;;;;1.83;1.50;;;;;;;13.67;100.00;100762.75;5035449;28;20033;-62
2023/08/29 01:21:00;;;;;;;2.60;2.13;;;;;;;13.76;100.00;100776.88;5035024;28;20117;-65
2023/08/29 01:23:39;;;;;;;2.70;1.60;;;;;;;13.67;100.00;100768.09;5034375;28;20075;-64
2023/08/29 01:26:12;;;;;;;3.90;2.40;;;;;;;13.68;100.00;100766.25;5034516;28;20033;-65
2023/08/29 01:28:39;;;;;;;4.17;1.77;;;;;;;13.63;100.00;100764.13;5032961;28;20045;-63
2023/08/29 01:31:06;;;;;;;4.33;2.30;;;;;;;13.73;100.00;100780.75;5034031;28;20037;-63
2023/08/29 01:33:32;;;;;;;2.43;2.03;;;;;;;13.68;100.00;100767.09;5033904;28;20066;-64
2023/08/29 01:35:58;;;;;;;3.77;1.60;;;;;;;13.79;100.00;100780.00;5034431;28;20021;-65
2023/08/29 01:38:23;;;;;;;3.10;1.93;;;;;;;13.83;100.00;100789.31;5032976;28;20419;-65
2023/08/29 01:40:49;;;;;;;2.67;1.90;;;;;;;13.78;100.00;100778.34;5066051;28;20033;-64
2023/08/29 01:43:14;;;;;;;3.27;1.87;;;;;;;13.84;100.00;100782.13;5034003;28;20029;-64
2023/08/29 01:45:40;;;;;;;2.80;1.90;;;;;;;13.97;100.00;100792.22;5033754;28;20350;-63
2023/08/29 01:48:05;;;;;;;5.90;1.80;;;;;;;14.02;100.00;100795.16;5033811;28;20030;-63
2023/08/29 01:50:32;;;;;;;2.87;1.80;;;;;;;14.02;100.00;100797.84;5035454;28;20040;-64
2023/08/29 01:53:01;;;;;;;6.03;1.83;;;;;;;13.86;100.00;100777.41;5033924;28;20087;-65
2023/08/29 01:55:28;;;;;;;2.70;1.60;;;;;;;13.89;100.00;100799.31;5033897;28;20112;-64
2023/08/29 01:57:54;;;;;;;1.70;1.60;;;;;;;13.84;100.00;100809.72;5033536;28;20017;-65
2023/08/29 02:00:21;;;;;;;1.50;1.40;;;;;;;13.76;100.00;100806.31;5033615;28;20021;-63
2023/08/29 02:02:46;;;;;;;2.80;2.57;;;;;;;13.62;100.00;100791.91;5033951;28;20027;-65
2023/08/29 02:05:11;;;;;;;2.53;1.50;;;;;;;13.67;100.00;100812.75;5032713;28;20553;-66
2023/08/29 02:07:37;;;;;;;1.60;1.50;;;;;;;13.59;100.00;100798.44;5034277;28;20176;-64
2023/08/29 02:10:03;;;;;;;2.20;1.40;;;;;;;13.44;100.00;100780.69;5033476;28;20029;-64
2023/08/29 02:12:29;;;;;;;4.80;2.03;;;;;;;13.54;100.00;100792.78;5032207;28;20080;-64
2023/08/29 02:14:54;;;;;;;3.83;1.63;;;;;;;13.51;100.00;100803.84;5033341;28;20034;-65
2023/08/29 02:17:20;;;;;;;2.80;1.63;;;;;;;13.49;100.00;100800.53;5033083;28;20045;-65
2023/08/29 02:19:45;;;;;;;6.37;3.00;;;;;;;13.43;100.00;100790.56;5032212;28;20029;-64
2023/08/29 02:22:11;;;;;;;2.73;2.40;;;;;;;13.38;100.00;100789.44;5033880;28;20067;-67
2023/08/29 02:24:37;;;;;;;3.17;1.80;;;;;;;13.19;100.00;100767.50;5031746;28;20036;-66
2023/08/29 02:27:04;;;;;;;2.17;1.77;;;;;;;13.45;100.00;100817.94;5015343;28;20034;-65
2023/08/29 02:29:29;;;;;;;4.13;1.83;;;;;;;13.41;100.00;100813.16;5032731;28;20071;-66
2023/08/29 02:31:55;;;;;;;4.37;1.83;;;;;;;13.32;100.00;100797.16;5031706;28;20480;-65
2023/08/29 02:34:21;;;;;;;2.13;1.93;;;;;;;13.32;100.00;100794.50;5033095;28;20036;-64
2023/08/29 02:36:46;;;;;;;5.00;2.23;;;;;;;13.31;100.00;100798.19;5035432;28;20389;-64
2023/08/29 02:39:12;;;;;;;2.20;2.00;;;;;;;13.24;100.00;100791.03;5032872;28;20041;-65
2023/08/29 02:41:37;;;;;;;2.70;1.67;;;;;;;13.35;100.00;100813.88;5032653;28;20056;-63
2023/08/29 02:44:03;;;;;;;4.07;1.90;;;;;;;13.24;100.00;100796.38;5032683;28;20411;-65
2023/08/29 02:46:29;;;;;;;2.27;1.77;;;;;;;13.29;100.00;100816.22;5031749;28;20026;-63
2023/08/29 02:48:54;;;;;;;2.23;1.83;;;;;;;13.25;100.00;100812.25;5032596;28;20041;-65
2023/08/29 02:51:20;;;;;;;2.40;1.87;;;;;;;13.25;100.00;100811.41;5033229;28;20071;-65
2023/08/29 02:53:46;;;;;;;3.87;1.57;;;;;;;13.23;100.00;100822.28;5033888;28;20064;-64
2023/08/29 02:56:11;;;;;;;4.10;1.80;;;;;;;13.09;100.00;100804.34;5032522;28;20037;-65
2023/08/29 02:58:37;;;;;;;2.03;1.77;;;;;;;13.12;100.00;100819.19;5032361;28;20480;-63
2023/08/29 03:01:03;;;;;;;2.23;2.03;;;;;;;13.08;100.00;100804.50;5030834;28;20108;-65
2023/08/29 03:03:29;;;;;;;2.87;2.20;;;;;;;12.89;100.00;100781.72;5032680;28;20022;-65
2023/08/29 03:05:59;;;;;;;1.90;1.80;;;;;;;13.17;100.00;100838.19;5031176;28;20039;-64
2023/08/29 03:08:25;;;;;;;7.20;2.30;;;;;;;13.11;100.00;100829.06;5033422;28;20025;-64
2023/08/29 03:10:52;;;;;;;2.57;2.37;;;;;;;13.14;100.00;100828.69;5032266;28;20021;-63
2023/08/29 03:13:19;;;;;;;2.60;1.80;;;;;;;13.24;100.00;100847.19;5032144;28;20478;-62
2023/08/29 03:15:45;;;;;;;4.43;2.10;;;;;;;13.12;100.00;100832.56;5032277;28;20029;-64
2023/08/29 03:18:11;;;;;;;7.30;1.90;;;;;;;13.18;100.00;100840.72;5031319;28;20384;-62
2023/08/29 03:20:43;;;;;;;4.03;1.93;;;;;;;13.25;100.00;100847.03;5032265;28;20029;-64
2023/08/29 03:23:09;;;;;;;3.77;2.03;;;;;;;13.22;100.00;100847.38;5033839;28;20035;-63
2023/08/29 03:25:34;;;;;;;2.50;2.00;;;;;;;13.21;100.00;100840.38;5032373;28;20115;-65
2023/08/29 03:28:00;;;;;;;2.23;1.77;;;;;;;13.31;100.00;100862.38;5031830;28;20037;-65
2023/08/29 03:30:26;;;;;;;2.70;2.00;;;;;;;13.29;100.00;100853.66;5032197;28;20056;-64
2023/08/29 03:32:52;;;;;;;3.57;2.20;;;;;;;13.36;100.00;100859.16;5032140;28;20615;-65
2023/08/29 03:35:17;;;;;;;5.10;2.40;;;;;;;13.37;100.00;100855.47;5032250;28;20029;-62
2023/08/29 03:37:43;;;;;;;4.07;1.83;;;;;;;13.08;100.00;100807.19;5035276;28;20022;-64
2023/08/29 03:40:10;;;;;;;6.17;1.97;;;;;;;13.43;100.00;100860.09;5035529;28;20022;-63
2023/08/29 03:42:35;;;;;;;2.73;2.43;;;;;;;13.41;100.00;100850.59;5033695;28;20025;-65
2023/08/29 03:45:01;;;;;;;3.43;2.03;;;;;;;13.15;100.00;100806.28;5036127;28;20037;-64
2023/08/29 03:47:28;;;;;;;4.73;2.83;;;;;;;13.38;100.00;100856.31;5032857;28;20079;-63
2023/08/29 03:49:53;;;;;;;3.63;1.90;;;;;;;13.42;100.00;100853.09;5032072;28;20572;-63
2023/08/29 03:52:23;;;;;;;3.23;2.93;;;;;;;13.50;100.00;100870.91;5030813;28;20116;-64
2023/08/29 03:54:48;;;;;;;2.83;2.23;;;;;;;13.43;100.00;100851.25;5031032;28;20115;-66
2023/08/29 03:57:14;;;;;;;2.93;2.50;;;;;;;13.54;100.00;100866.88;5031896;28;20429;-64
2023/08/29 03:59:40;;;;;;;5.90;2.00;;;;;;;13.56;100.00;100873.72;5030878;28;20026;-65
2023/08/29 04:02:06;;;;;;;3.73;2.00;;;;;;;13.68;100.00;100866.09;5031841;28;20069;-64
2023/08/29 04:04:32;;;;;;;2.33;2.13;;;;;;;13.84;100.00;100865.94;5031813;28;20022;-66
2023/08/29 04:06:59;;;;;;;4.90;2.00;;;;;;;14.05;100.00;100869.78;5032097;28;20388;-64
2023/08/29 04:09:25;;;;;;;4.07;2.23;;;;;;;14.33;100.00;100873.50;5031846;28;20420;-68
2023/08/29 04:11:50;;;;;;;3.60;2.37;;;;;;;14.55;100.00;100883.34;5033161;28;20029;-65
2023/08/29 04:14:16;;;;;;;4.33;2.63;;;;;;;14.02;100.00;100773.75;5035796;28;20063;-63
2023/08/29 04:16:41;;;;;;;4.60;2.07;;;;;;;14.67;100.00;100864.09;5035819;28;20500;-64
2023/08/29 04:19:07;;;;;;;5.83;2.00;;;;;;;14.73;100.00;100871.38;5035569;28;20480;-64
2023/08/29 04:21:33;;;;;;;3.47;1.70;;;;;;;14.72;100.00;100873.22;5035473;28;20691;-65
2023/08/29 04:23:59;;;;;;;3.67;1.80;;;;;;;14.75;100.00;100855.97;5035206;28;20087;-65
2023/08/29 04:26:25;;;;;;;4.33;2.33;;;;;;;14.77;100.00;100876.22;5035700;28;20469;-63
2023/08/29 04:28:51;;;;;;;5.63;2.47;;;;;;;14.64;100.00;100869.81;5035203;28;20077;-64
2023/08/29 04:31:19;;;;;;;3.20;2.13;;;;;;;14.55;100.00;100882.50;5033929;28;20033;-65
2023/08/29 04:33:45;;;;;;;3.03;1.90;;;;;;;14.35;100.00;100876.81;5035256;28;20120;-68
2023/08/29 04:36:10;;;;;;;2.63;2.00;;;;;;;14.30;100.00;100879.22;5035046;28;20136;-69
2023/08/29 04:38:36;;;;;;;2.90;1.97;;;;;;;14.19;100.00;100877.00;5035192;28;20021;-64
2023/08/29 04:41:03;;;;;;;2.60;2.10;;;;;;;14.24;100.00;100888.84;5035727;28;20036;-65
2023/08/29 04:43:29;;;;;;;4.83;2.33;;;;;;;14.25;100.00;100892.34;5035275;28;20041;-66
2023/08/29 04:45:54;;;;;;;4.30;2.30;;;;;;;14.23;100.00;100889.84;5035042;28;20037;-66
2023/08/29 04:48:20;;;;;;;5.10;2.93;;;;;;;14.20;100.00;100887.53;5034934;28;20067;-65
2023/08/29 04:50:45;;;;;;;4.83;2.00;;;;;;;14.19;100.00;100893.09;5034693;28;20025;-64
2023/08/29 04:53:11;;;;;;;2.27;2.07;;;;;;;14.23;100.00;100900.56;5033447;28;20057;-64
2023/08/29 04:55:37;;;;;;;2.17;1.97;;;;;;;13.87;100.00;100846.84;5035122;28;20029;-67
2023/08/29 04:58:02;;;;;;;5.00;2.80;;;;;;;14.21;100.00;100904.44;5035106;28;20349;-65
2023/08/29 05:00:28;;;;;;;3.80;2.20;;;;;;;14.13;100.00;100885.75;5034489;28;20083;-67
2023/08/29 05:02:54;;;;;;;3.43;1.77;;;;;;;14.19;100.00;100893.09;5034631;28;20047;-62
2023/08/29 05:05:20;;;;;;;3.50;2.83;;;;;;;14.24;100.00;100896.88;5034234;28;20022;-64
2023/08/29 05:07:45;;;;;;;3.10;2.20;;;;;;;14.41;100.00;100908.22;5034512;28;20029;-65
2023/08/29 05:10:11;;;;;;;5.33;1.90;;;;;;;14.31;100.00;100880.88;5033909;28;20350;-64
2023/08/29 05:12:36;;;;;;;4.50;2.00;;;;;;;14.61;100.00;100913.91;5035104;28;20022;-66
2023/08/29 05:15:02;;;;;;;6.53;1.90;;;;;;;14.37;100.00;100855.19;5034502;28;20044;-66
2023/08/29 05:17:29;;;;;;;3.77;2.40;;;;;;;14.80;100.00;100907.16;5034838;28;20025;-64
2023/08/29 05:19:55;;;;;;;4.10;2.30;;;;;;;14.61;100.00;100864.84;5034296;28;20261;-63
2023/08/29 05:22:20;;;;;;;4.03;2.57;;;;;;;14.93;100.00;100915.38;5034146;28;20148;-64
2023/08/29 05:24:46;;;;;;;3.30;2.37;;;;;;;15.11;100.00;100914.97;5034342;28;20040;-65
2023/08/29 05:27:11;;;;;;;3.03;2.03;;;;;;;15.14;100.00;100901.19;5034400;28;20384;-65
2023/08/29 05:29:37;;;;;;;5.87;2.50;;;;;;;15.07;100.00;100906.47;5033929;28;20424;-65
2023/08/29 05:32:03;;;;;;;4.10;2.27;;;;;;;15.05;100.00;100905.00;5034525;28;20107;-66
2023/08/29 05:34:28;;;;;;;4.23;2.40;;;;;;;15.00;100.00;100908.22;5032747;28;20052;-66
2023/08/29 05:36:56;;;;;;;3.60;2.43;;;;;;;14.91;100.00;100890.59;5033733;28;20030;-66
2023/08/29 05:39:21;;;;;;;2.87;2.50;;;;;;;15.02;100.00;100908.88;5033942;28;20112;-64
2023/08/29 05:41:47;;;;;;;3.20;2.90;;;;;;;15.04;100.00;100903.34;5034068;28;20112;-66
2023/08/29 05:44:13;;;;;;;5.93;2.07;;;;;;;14.99;100.00;100893.16;5033127;28;20033;-65
2023/08/29 05:46:38;;;;;;;4.10;2.30;;;;;;;15.02;100.00;100890.09;5033659;28;20033;-68
2023/08/29 05:49:04;;;;;;;4.10;2.60;;;;;;;15.14;100.00;100911.91;5033728;28;20029;-69
2023/08/29 05:51:29;;;;;;;3.80;2.10;;;;;;;15.13;100.00;100899.53;5016012;28;20033;-66
2023/08/29 05:53:55;;;;;;;4.47;2.57;;;;;;;15.09;100.00;100874.09;5033693;28;20120;-65
2023/08/29 05:56:20;;;;;;;2.30;2.10;;;;;;;15.15;100.00;100892.94;5033973;28;20079;-65
2023/08/29 05:58:46;;;;;;;13.60;11.40;;;;;;;15.14;100.00;100891.28;5065833;28;20577;-67
2023/08/29 06:01:12;;;;;;;5.90;3.03;;;;;;;15.27;100.00;100903.16;5033792;28;20039;-67
2023/08/29 06:03:37;;;;;;;5.10;2.43;;;;;;;15.30;100.00;100914.34;5016174;28;20037;-68
2023/08/29 06:06:03;;;;;;;5.37;2.57;;;;;;;15.35;100.00;100921.88;5032112;28;20025;-66
2023/08/29 06:08:30;;;;;;;6.33;2.60;;;;;;;15.35;100.00;100913.81;5033503;28;20018;-68
2023/08/29 06:10:55;;;;;;;9.40;3.97;;;;;;;15.45;100.00;100922.38;5033487;28;20036;-65
2023/08/29 06:13:20;;;;;;;6.50;2.90;;;;;;;15.49;100.00;100929.84;5032116;28;20025;-64
2023/08/29 06:15:47;;;;;;;4.63;3.03;;;;;;;15.50;100.00;100928.00;5033602;28;20075;-65
2023/08/29 06:18:12;;;;;;;5.47;2.53;;;;;;;15.45;100.00;100925.06;5015429;28;20477;-66
2023/08/29 06:20:38;;;;;;;4.40;2.10;;;;;;;15.24;100.00;100888.28;5032974;28;20022;-68
2023/08/29 06:23:03;;;;;;;5.97;2.93;;;;;;;15.57;100.00;100931.56;5032966;28;20423;-66
2023/08/29 06:25:29;;;;;;;6.53;2.23;;;;;;;15.46;100.00;100910.63;5033330;28;20040;-64
2023/08/29 06:27:55;;;;;;;4.53;2.40;;;;;;;15.58;100.00;100919.84;5032971;28;20105;-66
2023/08/29 06:30:21;;;;;;;2.67;2.43;;;;;;;15.68;100.00;100932.97;5033156;28;20049;-66
2023/08/29 06:32:47;;;;;;;4.93;2.60;;;;;;;15.74;100.00;100934.88;5032879;28;20036;-66
2023/08/29 06:35:12;;;;;;;3.80;2.30;;;;;;;15.85;100.00;100933.53;5032030;28;20040;-66
2023/08/29 06:37:38;;;;;;;3.80;2.40;;;;;;;15.97;100.00;100927.44;5033111;28;20472;-65
2023/08/29 06:40:10;;;;;;;6.70;2.47;;;;;;;16.12;100.00;100943.47;5031617;28;20049;-65
2023/08/29 06:42:36;;;;;;;4.57;2.57;;;;;;;16.14;100.00;100949.47;5032871;28;20032;-67
2023/08/29 06:45:02;;;;;;;3.70;2.20;;;;;;;16.14;100.00;100944.09;5032044;28;20021;-64
2023/08/29 06:47:29;;;;;;;3.93;1.97;;;;;;;16.25;100.00;100957.03;5032660;28;20025;-66
2023/08/29 06:49:55;;;;;;;3.87;2.50;;;;;;;16.31;100.00;100945.50;5032244;28;20036;-66
2023/08/29 06:52:23;;;;;;;5.00;2.33;;;;;;;16.60;100.00;100971.34;5032627;28;20057;-66
2023/08/29 06:54:49;;;;;;;3.87;2.47;;;;;;;16.57;100.00;100955.59;5032449;28;20068;-65
2023/08/29 06:57:14;;;;;;;7.07;2.60;;;;;;;16.63;100.00;100975.50;5032682;28;20056;-68
2023/08/29 06:59:40;;;;;;;3.30;2.20;;;;;;;16.65;100.00;100989.56;5041815;28;20029;-65
2023/08/29 07:02:06;;;;;;;3.93;1.80;;;;;;;16.58;100.00;100988.69;5051598;28;20043;-66
2023/08/29 07:04:31;;;;;;;3.53;2.43;;;;;;;16.63;100.00;100983.56;5051458;28;20047;-68
2023/08/29 07:06:57;;;;;;;3.13;2.27;;;;;;;16.55;100.00;100973.78;5052126;28;20071;-68
2023/08/29 07:09:22;;;;;;;5.00;2.90;;;;;;;16.64;100.00;100983.34;5050939;28;20054;-65
2023/08/29 07:11:48;;;;;;;6.43;2.70;;;;;;;16.79;100.00;100985.16;5052253;28;20116;-65
2023/08/29 07:14:13;;;;;;;5.15;3.00;;;;;;;16.79;100.00;100971.69;5051062;28;20036;-66
2023/08/29 07:16:39;;;;;;;3.10;2.33;;;;;;;16.81;100.00;100983.94;5052596;28;20037;-64
2023/08/29 07:19:05;;;;;;;2.83;2.50;;;;;;;16.85;100.00;100985.19;5051973;28;20044;-67
2023/08/29 07:21:31;;;;;;;2.90;1.80;;;;;;;16.79;100.00;100979.78;5052035;28;20060;-66
2023/08/29 07:23:57;;;;;;;2.67;2.03;;;;;;;16.80;100.00;100974.19;5052144;28;20376;-66
2023/08/29 07:26:22;;;;;;;3.78;2.63;;;;;;;16.98;100.00;100990.63;5051912;28;20025;-65
2023/08/29 07:28:48;;;;;;;3.20;2.30;;;;;;;17.08;100.00;100989.44;5051927;28;20051;-67
2023/08/29 07:31:13;;;;;;;3.40;2.10;;;;;;;17.12;100.00;100996.09;5049480;28;20423;-68
2023/08/29 07:33:38;;;;;;;2.92;2.55;;;;;;;17.18;100.00;100989.91;5040860;28;20495;-68
2023/08/29 07:36:04;;;;;;;2.45;2.10;;;;;;;17.15;100.00;100990.31;5031753;28;20072;-66
2023/08/29 07:38:30;;;;;;;3.22;2.03;;;;;;;17.09;100.00;100996.50;5032306;28;20079;-65
2023/08/29 07:40:57;;;;;;;3.53;2.13;;;;;;;17.08;100.00;100989.44;5032173;28;20036;-66
2023/08/29 07:43:22;;;;;;;4.50;2.78;;;;;;;17.01;100.00;100982.16;5031075;28;20049;-65
2023/08/29 07:45:52;;;;;;;3.50;2.33;;;;;;;17.03;100.00;100977.41;5033279;28;20538;-67
2023/08/29 07:48:19;;;;;;;10.98;2.50;;;;;;;17.03;100.00;100980.09;5035745;28;20027;-70
2023/08/29 07:50:44;;;;;;;5.28;2.10;;;;;;;17.08;100.00;100963.38;5035893;28;20033;-64
2023/08/29 07:53:10;;;;;;;3.53;2.15;;;;;;;17.12;100.00;100967.31;5038144;28;20366;-64
2023/08/29 07:55:35;;;;;;;4.70;2.33;;;;;;;17.10;100.00;100974.75;5035110;28;20461;-65
2023/08/29 07:58:01;;;;;;;6.03;2.35;;;;;;;17.06;100.00;100973.50;5036434;28;20075;-66
2023/08/29 08:00:28;;;;;;;3.00;1.83;;;;;;;17.18;100.00;100996.13;5054089;28;20116;-66
2023/08/29 08:02:53;;;;;;;3.28;2.03;;;;;;;17.29;100.00;101002.78;5055852;28;20469;-69
2023/08/29 08:05:19;;;;;;;3.05;1.80;;;;;;;17.33;100.00;100998.66;5055984;28;20059;-65
2023/08/29 08:07:45;;;;;;;2.35;1.88;;;;;;;17.36;100.00;100990.19;5055946;28;20033;-68
2023/08/29 08:10:13;;;;;;;2.80;1.88;;;;;;;17.48;99.37;100999.34;5055189;28;20488;-68
2023/08/29 08:12:40;;;;;;;3.25;2.13;;;;;;;17.26;98.94;100952.88;5055023;28;20056;-68
2023/08/29 08:15:07;;;;;;;3.78;1.70;;;;;;;17.68;98.08;100998.63;5055169;28;20032;-68
2023/08/29 08:17:33;;;;;;;4.72;1.65;;;;;;;17.57;96.72;100975.75;5055142;28;20043;-70
2023/08/29 08:19:59;;;;;;;2.30;1.90;;;;;;;17.74;95.43;100995.94;5055343;28;20518;-66
2023/08/29 08:22:24;;;;;;;2.65;2.22;;;;;;;17.78;95.83;100996.34;5055124;28;20132;-68
2023/08/29 08:24:50;;;;;;;3.80;2.35;;;;;;;17.80;96.00;100999.66;5055093;28;20028;-68
2023/08/29 08:27:17;;;;;;;3.03;1.88;;;;;;;17.98;94.89;101010.69;5054963;28;20064;-67
2023/08/29 08:29:43;;;;;;;3.20;1.77;;;;;;;17.80;94.96;100953.88;5054759;28;20053;-67
2023/08/29 08:32:18;;;;;;;3.10;1.83;;;;;;;18.40;93.15;101027.50;5033864;28;20041;-69
2023/08/29 08:34:43;;;;;;;2.50;2.08;;;;;;;18.39;92.40;101005.13;5038583;28;20097;-70
2023/08/29 08:37:09;;;;;;;2.50;1.63;;;;;;;18.54;91.77;101013.00;5039241;28;20118;-69
2023/08/29 08:39:34;;;;;;;2.42;1.80;;;;;;;18.64;90.70;101018.00;5036634;28;20033;-69
2023/08/29 08:42:03;;;;;;;3.53;1.55;;;;;;;18.51;89.49;101000.78;5037176;28;20120;-67
2023/08/29 08:44:31;;;;;;;2.53;1.70;;;;;;;18.23;89.31;100968.63;5045037;28;20055;-66
2023/08/29 08:46:57;;;;;;;2.40;1.60;;;;;;;18.39;88.14;101004.28;5056902;28;20124;-67
2023/08/29 08:49:24;;;;;;;3.00;1.67;;;;;;;18.39;89.66;101020.47;5058414;28;20545;-67
2023/08/29 08:51:49;;;;;;;5.53;1.92;;;;;;;18.40;90.11;101005.94;5059439;28;20021;-68
2023/08/29 08:54:15;;;;;;;1.88;1.42;;;;;;;18.35;87.67;100997.66;5057969;28;20083;-68
2023/08/29 08:56:41;;;;;;;3.25;2.00;;;;;;;18.39;86.52;101015.06;5034283;28;20112;-65
2023/08/29 08:59:08;;;;;;;3.90;2.42;;;;;;;18.43;87.23;101019.00;5033171;28;20075;-67
2023/08/29 09:01:34;;;;;;;5.25;1.88;;;;;;;18.50;88.14;101014.44;5050306;28;20075;-67
2023/08/29 09:04:00;;;;;;;3.67;1.42;;;;;;;18.44;85.81;101028.75;5034761;28;20029;-69
2023/08/29 09:06:25;;;;;;;2.40;1.60;;;;;;;18.36;85.86;101031.66;5035002;28;20036;-69
2023/08/29 09:08:51;;;;;;;3.03;1.40;;;;;;;18.19;85.90;101010.50;5034757;28;20029;-67
2023/08/29 09:11:18;;;;;;;4.95;1.52;;;;;;;18.30;85.31;101038.72;5034634;28;20477;-67
2023/08/29 09:13:47;;;;;;;2.17;1.80;;;;;;;18.37;84.78;101033.31;5034842;28;20047;-68
2023/08/29 09:16:16;;;;;;;1.98;1.42;;;;;;;18.36;83.60;101037.88;5033322;28;20029;-71
2023/08/29 09:18:49;;;;;;;2.55;1.50;;;;;;;18.47;84.61;101053.44;5034726;28;20041;-68
2023/08/29 09:21:24;;;;;;;1.92;1.33;;;;;;;18.53;84.39;101052.63;5033723;28;20029;-67
2023/08/29 09:23:50;;;;;;;2.90;1.88;;;;;;;18.55;83.54;101052.44;5034543;28;20028;-68
2023/08/29 09:26:16;;;;;;;1.75;1.55;;;;;;;18.43;83.05;101033.31;5016962;28;20030;-67
2023/08/29 09:28:42;;;;;;;2.30;1.60;;;;;;;18.53;82.19;101043.72;5034203;28;20055;-68
2023/08/29 09:31:10;;;;;;;4.40;2.00;;;;;;;18.62;82.28;101047.88;5033522;28;20033;-69
2023/08/29 09:33:37;;;;;;;3.78;2.88;;;;;;;18.62;82.20;101058.66;5035344;28;20030;-66
2023/08/29 09:36:05;;;;;;;2.40;1.35;;;;;;;18.57;80.31;101055.75;5036929;28;20077;-67
2023/08/29 09:38:32;;;;;;;1.90;1.70;;;;;;;18.69;80.95;101059.50;5038156;28;20041;-66
2023/08/29 09:40:59;;;;;;;1.90;1.67;;;;;;;18.69;81.33;101047.88;5043829;28;20025;-65
2023/08/29 09:43:27;;;;;;;2.17;1.20;;;;;;;18.72;79.72;101059.06;5052563;28;20021;-67
2023/08/29 09:45:53;;;;;;;1.80;1.40;;;;;;;18.78;80.08;101052.00;5059504;28;20032;-65
2023/08/29 09:48:19;;;;;;;2.45;1.52;;;;;;;18.79;81.33;101049.13;5041151;28;20087;-69
2023/08/29 09:50:46;;;;;;;1.90;1.50;;;;;;;18.95;80.08;101055.94;5039228;28;20029;-68
2023/08/29 09:53:17;;;;;;;3.03;1.60;;;;;;;19.03;78.75;101060.28;5053875;28;20366;-68
2023/08/29 09:55:45;;;;;;;3.97;2.20;;;;;;;19.08;78.58;101044.25;5037303;28;20257;-68
2023/08/29 09:58:11;;;;;;;2.97;1.92;;;;;;;19.22;77.66;101056.72;5035024;28;20400;-68
2023/08/29 10:00:38;;;;;;;3.47;1.65;;;;;;;19.21;75.73;101056.91;5033735;28;20473;-71
2023/08/29 10:03:08;;;;;;;2.38;1.75;;;;;;;19.27;75.60;101043.38;5033722;28;20488;-68
2023/08/29 10:05:36;;;;;;;1.90;1.30;;;;;;;19.45;75.79;101048.94;5033743;28;20021;-69
2023/08/29 10:08:12;;;;;;;4.35;1.35;;;;;;;19.54;74.87;101043.31;5032239;28;20025;-67
2023/08/29 10:10:40;;;;;;;2.28;1.52;;;;;;;19.58;74.30;101028.34;5034009;28;20131;-67
2023/08/29 10:13:08;;;;;;;2.05;1.50;;;;;;;19.65;74.26;101042.63;5033898;28;20025;-67
2023/08/29 10:15:34;;;;;;;2.45;1.80;;;;;;;19.57;71.79;101018.56;5034091;28;20021;-68
2023/08/29 10:18:00;;;;;;;3.85;1.30;;;;;;;19.69;72.96;101038.50;5035963;28;20037;-64
2023/08/29 10:20:26;;;;;;;2.13;1.50;;;;;;;19.74;72.26;101033.25;5035446;28;20079;-66
2023/08/29 10:22:52;;;;;;;2.53;1.08;;;;;;;19.64;72.37;101013.97;5033174;28;20076;-67
2023/08/29 10:25:23;;;;;;;1.67;1.40;;;;;;;20.00;70.72;101045.78;5033393;28;20029;-68
2023/08/29 10:27:50;;;;;;;5.93;2.55;;;;;;;20.15;69.38;101043.59;5031998;28;20027;-68
2023/08/29 10:30:15;;;;;;;2.55;1.73;;;;;;;20.02;69.07;101043.69;5031580;28;20535;-68
2023/08/29 10:32:43;;;;;;;5.00;2.13;;;;;;;19.77;70.15;101025.53;5032628;28;20068;-68
2023/08/29 10:35:20;;;;;;;1.67;1.20;;;;;;;19.76;69.85;101047.38;5032890;28;20029;-68
2023/08/29 10:37:54;;;;;;;1.25;0.82;;;;;;;19.70;71.28;101056.34;5031779;28;20025;-67
2023/08/29 10:40:20;;;;;;;1.63;1.25;;;;;;;19.80;71.82;101056.72;5031537;28;20377;-68
2023/08/29 10:42:51;;;;;;;2.28;1.40;;;;;;;20.17;71.07;101063.13;5031517;28;20487;-67
2023/08/29 10:45:19;;;;;;;3.50;1.70;;;;;;;20.48;70.12;101048.78;5032767;28;20063;-67
2023/08/29 10:47:46;;;;;;;3.60;0.98;;;;;;;20.73;66.40;101060.44;5032834;28;20033;-68
2023/08/29 10:50:18;;;;;;;3.17;1.25;;;;;;;20.67;66.85;101074.84;5032770;28;20032;-69
2023/08/29 10:52:44;;;;;;;2.05;1.00;;;;;;;20.63;66.16;101067.41;5033095;28;20463;-67
2023/08/29 10:55:22;;;;;;;2.45;1.13;;;;;;;20.44;67.18;101063.81;5032639;28;20022;-66
2023/08/29 10:57:48;;;;;;;1.38;1.00;;;;;;;20.49;68.60;101058.56;5032302;28;20477;-69
2023/08/29 11:00:51;;;;;;;1.17;0.80;;;;;;;20.66;68.30;101064.25;5031345;28;20515;-67
2023/08/29 11:03:45;;;;;;;3.35;1.17;;;;;;;20.77;68.18;101062.69;5032448;28;20059;-68
2023/08/29 11:06:11;;;;;;;2.83;2.28;;;;;;;20.61;67.20;101055.97;5032347;28;20056;-68
2023/08/29 11:08:36;;;;;;;1.58;1.00;;;;;;;20.46;66.92;101050.88;5032583;28;20022;-68
2023/08/29 11:11:22;;;;;;;4.88;1.52;;;;;;;20.36;67.58;101061.34;5030721;28;20044;-65
2023/08/29 11:13:59;;;;;;;2.22;1.00;;;;;;;20.13;67.85;101055.69;5031415;28;20064;-67
2023/08/29 11:16:35;;;;;;;3.33;1.30;;;;;;;19.92;68.03;101054.97;5032212;28;20384;-70